Offutt A F B, Nebraska
Current Conditions -  °F | °C
As of 5:58 AM on Saturday 25 Oct 2014 (Local Time) from KOFF Reporting Station
Clear Clear  
Wind Chill: 47°   Ceiling: Unl
Heat Index: 47°   Visibility: 10mi
Dew Point: 47°   Wind: 3mph
Humidity: 100%   Direction: 290°WNW
Pressure: 30.04"   Gusts: NA
Location:  41.1148°N, 95.9076°W
Report Text: KOFF 251058Z AUTO 29003KT 10SM CLR 08/08 A3004 RMK AO2 SLP175 T00830083
Loading
Personal Weather Stations






























Interactive Weather Map
Tropical Storm Tracking
New forecast layout! Learn more

10-Day Weather Forecast

Advertisements
Track Severe Weather on mobile